createdAt,value
2022-11-25T00:00:10.712Z,4.97
2022-11-25T00:03:15.091Z,4.60
2022-11-25T00:06:23.069Z,4.63
2022-11-25T00:09:27.056Z,5.20
2022-11-25T00:12:31.156Z,4.82
2022-11-25T00:15:35.206Z,4.90
2022-11-25T00:18:40.198Z,4.78
2022-11-25T00:21:44.827Z,4.80
2022-11-25T00:24:49.090Z,4.55
2022-11-25T00:27:53.323Z,4.70
2022-11-25T00:31:04.574Z,4.65
2022-11-25T00:34:12.299Z,4.30
2022-11-25T00:37:16.343Z,4.25
2022-11-25T00:40:20.384Z,4.72
2022-11-25T00:43:43.002Z,4.25
2022-11-25T00:46:47.040Z,4.53
2022-11-25T00:49:53.354Z,4.82
2022-11-25T00:52:57.330Z,4.40
2022-11-25T00:56:14.368Z,5.22
2022-11-25T00:59:18.917Z,4.60
2022-11-25T01:02:23.661Z,4.88
2022-11-25T01:05:27.607Z,4.90
2022-11-25T01:08:32.897Z,5.15
2022-11-25T01:11:36.939Z,5.07
2022-11-25T01:14:41.278Z,4.90
2022-11-25T01:17:45.020Z,5.70
2022-11-25T01:20:49.136Z,5.80
2022-11-25T01:23:53.489Z,5.57
2022-11-25T01:26:57.701Z,5.78
2022-11-25T01:30:01.739Z,5.70
2022-11-25T01:33:05.773Z,6.20
2022-11-25T01:36:15.677Z,5.57
2022-11-25T01:39:26.861Z,5.25
2022-11-25T01:42:34.320Z,5.45
2022-11-25T01:45:38.763Z,5.63
2022-11-25T01:48:57.480Z,5.50
2022-11-25T01:52:17.811Z,5.53
2022-11-25T01:55:29.669Z,5.25
2022-11-25T01:58:37.056Z,5.50
2022-11-25T02:01:41.349Z,5.63
2022-11-25T02:04:47.066Z,5.68
2022-11-25T02:07:53.181Z,6.35
2022-11-25T02:10:57.953Z,5.80
2022-11-25T02:14:02.715Z,6.22
2022-11-25T02:17:06.592Z,5.53
2022-11-25T02:20:20.621Z,6.60
2022-11-25T02:23:25.742Z,5.15
2022-11-25T02:26:30.614Z,5.35
2022-11-25T02:29:35.090Z,5.15
2022-11-25T02:32:48.679Z,4.70
2022-11-25T02:39:03.469Z,4.60
2022-11-25T02:42:08.148Z,4.80
2022-11-25T02:45:15.498Z,5.03
2022-11-25T02:48:20.117Z,4.60
2022-11-25T02:51:26.904Z,4.45
2022-11-25T02:54:30.831Z,4.90
2022-11-25T02:57:35.168Z,4.63
2022-11-25T03:00:39.539Z,4.80
2022-11-25T03:03:43.714Z,4.78
2022-11-25T03:06:48.324Z,4.85
2022-11-25T03:09:52.797Z,4.80
2022-11-25T03:12:57.141Z,5.00
2022-11-25T03:16:01.628Z,4.68
2022-11-25T03:19:06.088Z,4.78
2022-11-25T03:22:10.381Z,4.68
2022-11-25T03:25:15.480Z,4.45
2022-11-25T03:28:19.525Z,4.63
2022-11-25T03:31:23.577Z,4.75
2022-11-25T03:34:27.576Z,4.95
2022-11-25T03:37:31.747Z,4.65
2022-11-25T03:40:35.763Z,4.97
2022-11-25T03:43:39.748Z,4.43
2022-11-25T03:46:43.806Z,4.57
2022-11-25T03:49:48.188Z,4.35
2022-11-25T03:52:52.247Z,4.50
2022-11-25T03:55:56.255Z,4.32
2022-11-25T03:59:00.018Z,4.53
2022-11-25T04:02:04.418Z,4.03
2022-11-25T04:05:08.983Z,4.30
2022-11-25T04:08:13.419Z,4.10
2022-11-25T04:11:17.535Z,4.05
2022-11-25T04:14:21.460Z,4.18
2022-11-25T04:17:25.724Z,4.22
2022-11-25T04:20:29.867Z,3.83
2022-11-25T04:23:33.756Z,3.78
2022-11-25T04:26:37.624Z,4.30
2022-11-25T04:29:41.818Z,4.63
2022-11-25T04:32:45.788Z,4.15
2022-11-25T04:35:49.767Z,4.15
2022-11-25T04:38:53.624Z,4.05
2022-11-25T04:42:16.311Z,4.53
2022-11-25T04:45:23.388Z,4.47
2022-11-25T04:48:27.619Z,3.75
2022-11-25T04:51:32.021Z,4.47
2022-11-25T04:54:36.224Z,4.00
2022-11-25T04:57:40.449Z,4.40
2022-11-25T05:00:44.711Z,3.97
2022-11-25T05:03:56.011Z,4.57
2022-11-25T05:07:01.643Z,4.45
2022-11-25T05:10:06.561Z,4.72
2022-11-25T05:13:10.673Z,4.47
2022-11-25T05:16:14.718Z,4.43
2022-11-25T05:19:19.338Z,4.20
2022-11-25T05:22:26.140Z,3.92
2022-11-25T05:25:30.274Z,4.45
2022-11-25T05:28:34.265Z,4.97
2022-11-25T05:31:39.051Z,4.18
2022-11-25T05:34:43.303Z,4.63
2022-11-25T05:37:48.010Z,4.05
2022-11-25T05:40:52.402Z,4.57
2022-11-25T05:43:56.857Z,4.25
2022-11-25T05:47:00.812Z,4.13
2022-11-25T05:50:05.406Z,4.45
2022-11-25T05:53:09.774Z,5.03
2022-11-25T05:56:13.966Z,4.65
2022-11-25T05:59:18.052Z,4.82
2022-11-25T06:02:21.942Z,4.50
2022-11-25T06:05:26.135Z,4.68
2022-11-25T06:08:30.634Z,4.80
2022-11-25T06:11:34.764Z,5.65
2022-11-25T06:14:38.678Z,4.82
2022-11-25T06:17:43.123Z,5.55
2022-11-25T06:20:56.545Z,6.32
2022-11-25T06:24:01.072Z,6.18
2022-11-25T06:27:05.083Z,5.70
2022-11-25T06:30:09.585Z,4.68
2022-11-25T06:33:13.790Z,5.30
2022-11-25T06:36:19.674Z,4.95
2022-11-25T06:39:23.560Z,4.88
2022-11-25T06:42:28.153Z,5.38
2022-11-25T06:45:33.072Z,4.75
2022-11-25T06:48:37.429Z,4.82
2022-11-25T06:51:41.269Z,5.60
2022-11-25T06:54:45.852Z,5.78
2022-11-25T06:57:51.316Z,5.93
2022-11-25T07:01:00.833Z,5.78
2022-11-25T07:04:05.623Z,5.75
2022-11-25T07:07:09.599Z,5.28
2022-11-25T07:10:13.907Z,5.05
2022-11-25T07:13:17.852Z,5.18
2022-11-25T07:16:22.679Z,5.07
2022-11-25T07:19:26.820Z,5.53
2022-11-25T07:22:30.946Z,5.88
2022-11-25T07:25:35.341Z,5.38
2022-11-25T07:28:40.280Z,5.40
2022-11-25T07:31:45.643Z,5.28
2022-11-25T07:34:51.526Z,5.20
2022-11-25T07:37:56.379Z,5.53
2022-11-25T07:41:14.270Z,5.75
2022-11-25T07:44:18.696Z,5.15
2022-11-25T07:47:22.599Z,5.60
2022-11-25T07:50:26.711Z,5.85
2022-11-25T07:53:31.304Z,5.82
2022-11-25T07:56:37.703Z,5.88
2022-11-25T07:59:41.654Z,6.38
2022-11-25T08:02:45.920Z,6.35
2022-11-25T08:05:49.772Z,5.85
2022-11-25T08:08:55.641Z,5.97
2022-11-25T08:11:59.894Z,6.20
2022-11-25T08:15:04.107Z,6.50
2022-11-25T08:18:08.251Z,6.55
2022-11-25T08:21:14.112Z,6.03
2022-11-25T08:24:20.656Z,6.50
2022-11-25T08:27:25.008Z,7.22
2022-11-25T08:30:29.321Z,6.90
2022-11-25T08:33:34.208Z,6.10
2022-11-25T08:36:38.285Z,6.30
2022-11-25T08:39:58.427Z,6.93
2022-11-25T08:43:03.856Z,7.03
2022-11-25T08:46:17.816Z,6.10
2022-11-25T08:49:22.489Z,5.88
2022-11-25T08:52:28.905Z,6.10
2022-11-25T08:55:32.712Z,6.20
2022-11-25T08:58:37.652Z,6.70
2022-11-25T09:01:41.641Z,6.75
2022-11-25T09:04:45.683Z,6.45
2022-11-25T09:07:49.797Z,6.85
2022-11-25T09:10:54.270Z,6.63
2022-11-25T09:13:58.649Z,6.20
2022-11-25T09:17:03.718Z,6.50
2022-11-25T09:20:08.266Z,6.40
2022-11-25T09:23:12.334Z,6.60
2022-11-25T09:26:30.974Z,6.22
2022-11-25T09:29:35.400Z,6.55
2022-11-25T09:32:39.691Z,6.35
2022-11-25T09:35:44.211Z,6.45
2022-11-25T09:38:48.026Z,6.97
2022-11-25T09:42:33.412Z,6.80
2022-11-25T09:46:08.898Z,6.68
2022-11-25T09:49:35.859Z,6.35
2022-11-25T09:52:46.012Z,7.15
2022-11-25T09:56:00.044Z,6.30
2022-11-25T09:59:16.481Z,6.47
2022-11-25T10:02:28.516Z,5.78
2022-11-25T10:06:01.870Z,6.32
2022-11-25T10:09:15.466Z,6.18
2022-11-25T10:12:32.581Z,5.78
2022-11-25T10:15:42.669Z,5.53
2022-11-25T10:18:58.739Z,6.00
2022-11-25T10:22:22.869Z,5.82
2022-11-25T10:25:35.299Z,5.85
2022-11-25T10:28:41.739Z,5.95
2022-11-25T10:31:46.142Z,4.57
2022-11-25T10:34:56.520Z,5.03
2022-11-25T10:38:03.373Z,4.13
2022-11-25T10:41:10.754Z,5.07
2022-11-25T10:44:27.335Z,4.63
2022-11-25T10:47:56.833Z,4.00
2022-11-25T10:51:20.936Z,3.85
2022-11-25T10:54:39.078Z,3.63
2022-11-25T10:57:43.825Z,3.63
2022-11-25T11:00:48.160Z,3.42
2022-11-25T11:04:03.316Z,3.28
2022-11-25T11:07:10.238Z,2.88
2022-11-25T11:10:22.892Z,3.30
2022-11-25T11:13:33.067Z,2.67
2022-11-25T11:16:41.428Z,3.17
2022-11-25T11:20:21.742Z,2.80
2022-11-25T11:23:27.389Z,2.65
2022-11-25T11:26:34.439Z,3.00
2022-11-25T11:29:38.875Z,2.67
2022-11-25T11:33:03.212Z,2.50
2022-11-25T11:36:32.079Z,2.83
2022-11-25T11:39:35.961Z,2.88
2022-11-25T11:42:43.092Z,2.53
2022-11-25T11:46:17.440Z,2.50
2022-11-25T11:49:30.514Z,2.50
2022-11-25T11:52:46.292Z,2.78
2022-11-25T11:59:54.535Z,2.78
2022-11-25T12:03:10.918Z,2.90
2022-11-25T12:06:15.645Z,2.70
2022-11-25T12:09:23.622Z,2.60
2022-11-25T12:13:05.616Z,2.38
2022-11-25T12:16:23.934Z,2.85
2022-11-25T12:19:58.573Z,2.67
2022-11-25T12:23:10.312Z,2.38
2022-11-25T12:26:34.972Z,2.63
2022-11-25T12:29:50.500Z,2.40
2022-11-25T12:33:03.571Z,3.45
2022-11-25T12:36:16.709Z,2.70
2022-11-25T12:39:47.677Z,2.80
2022-11-25T12:42:55.879Z,2.20
2022-11-25T12:46:22.530Z,2.58
2022-11-25T12:49:29.732Z,2.55
2022-11-25T12:52:43.449Z,2.50
2022-11-25T13:02:41.463Z,2.90
2022-11-25T13:05:54.563Z,2.88
2022-11-25T13:08:58.611Z,2.70
2022-11-25T13:12:28.526Z,2.92
2022-11-25T13:15:44.838Z,3.05
2022-11-25T13:18:50.114Z,3.05
2022-11-25T13:22:02.829Z,3.25
2022-11-25T13:25:24.564Z,2.92
2022-11-25T13:28:32.791Z,3.20
2022-11-25T13:31:58.936Z,3.20
2022-11-25T13:35:37.219Z,3.13
2022-11-25T13:38:50.070Z,2.97
2022-11-25T13:42:40.561Z,2.57
2022-11-25T13:45:45.105Z,2.80
2022-11-25T13:48:49.555Z,3.03
2022-11-25T13:51:56.462Z,3.35
2022-11-25T13:55:07.298Z,2.95
2022-11-25T13:58:31.424Z,3.20
2022-11-25T14:04:57.877Z,3.00
2022-11-25T14:08:19.638Z,2.90
2022-11-25T14:11:42.710Z,3.30
2022-11-25T14:15:10.757Z,6.72
2022-11-25T14:18:17.756Z,4.30
2022-11-25T14:21:50.230Z,4.05
2022-11-25T14:25:30.395Z,4.05
2022-11-25T14:29:03.938Z,3.17
2022-11-25T14:32:28.140Z,3.53
2022-11-25T14:35:55.820Z,4.18
2022-11-25T14:39:08.726Z,3.88
2022-11-25T14:42:17.580Z,3.83
2022-11-25T14:45:25.745Z,4.25
2022-11-25T14:48:29.542Z,4.90
2022-11-25T14:51:36.285Z,4.50
2022-11-25T14:54:43.184Z,4.97
2022-11-25T14:57:46.938Z,5.53
2022-11-25T15:01:00.952Z,5.32
2022-11-25T15:04:17.420Z,4.90
2022-11-25T15:07:27.720Z,4.63
2022-11-25T15:10:55.061Z,4.85
2022-11-25T15:14:03.062Z,4.38
2022-11-25T15:17:08.968Z,4.38
2022-11-25T15:20:17.661Z,4.35
2022-11-25T15:23:27.763Z,3.60
2022-11-25T15:26:34.631Z,3.80
2022-11-25T15:29:41.865Z,5.60
2022-11-25T15:32:46.451Z,4.53
2022-11-25T15:35:50.641Z,4.53
2022-11-25T15:38:55.328Z,5.18
2022-11-25T15:42:18.570Z,4.88
2022-11-25T15:45:22.609Z,4.05
2022-11-25T15:48:45.183Z,4.60
2022-11-25T15:51:55.090Z,4.30
2022-11-25T15:55:06.712Z,4.25
2022-11-25T15:58:19.014Z,4.80
2022-11-25T16:01:24.654Z,4.30
2022-11-25T16:04:28.943Z,4.03
2022-11-25T16:07:33.154Z,4.28
2022-11-25T16:10:43.610Z,4.00
2022-11-25T16:13:52.621Z,4.35
2022-11-25T16:17:02.015Z,4.70
2022-11-25T16:20:17.866Z,5.30
2022-11-25T16:23:22.699Z,6.18
2022-11-25T16:26:39.992Z,9.32
2022-11-25T16:29:53.648Z,6.78
2022-11-25T16:32:57.663Z,7.72
2022-11-25T16:36:06.545Z,7.72
2022-11-25T16:39:12.498Z,6.90
2022-11-25T16:42:20.358Z,6.32
2022-11-25T16:45:27.351Z,5.88
2022-11-25T16:48:31.425Z,5.80
2022-11-25T16:51:35.251Z,5.03
2022-11-25T16:54:39.440Z,5.05
2022-11-25T16:57:43.825Z,6.25
2022-11-25T17:00:53.570Z,5.78
2022-11-25T17:03:57.714Z,6.03
2022-11-25T17:07:32.280Z,6.28
2022-11-25T17:10:26.463Z,5.80
2022-11-25T17:13:30.523Z,5.90
2022-11-25T17:16:34.832Z,6.30
2022-11-25T17:19:39.197Z,6.38
2022-11-25T17:22:43.794Z,5.82
2022-11-25T17:25:49.846Z,6.00
2022-11-25T17:28:59.860Z,5.75
2022-11-25T17:32:05.031Z,5.85
2022-11-25T17:35:19.741Z,5.70
2022-11-25T17:38:24.013Z,6.00
2022-11-25T17:41:29.179Z,5.72
2022-11-25T17:44:33.642Z,5.90
2022-11-25T17:47:37.205Z,5.57
2022-11-25T17:50:41.613Z,5.03
2022-11-25T17:53:47.555Z,5.07
2022-11-25T17:56:52.670Z,5.10
2022-11-25T17:59:56.558Z,5.00
2022-11-25T18:03:00.993Z,5.10
2022-11-25T18:06:06.518Z,5.10
2022-11-25T18:09:10.504Z,5.90
2022-11-25T18:12:30.696Z,6.82
2022-11-25T18:15:34.949Z,6.28
2022-11-25T18:18:39.122Z,6.13
2022-11-25T18:21:43.300Z,7.75
2022-11-25T18:24:47.853Z,6.22
2022-11-25T18:27:56.198Z,6.78
2022-11-25T18:31:03.848Z,6.88
2022-11-25T18:34:18.771Z,7.38
2022-11-25T18:37:22.899Z,7.95
2022-11-25T18:40:29.049Z,7.75
2022-11-25T18:43:34.858Z,10.02
2022-11-25T18:46:39.661Z,9.23
2022-11-25T18:49:43.714Z,9.85
2022-11-25T18:52:48.624Z,9.55
2022-11-25T18:55:52.582Z,10.00
2022-11-25T18:58:59.804Z,9.80
2022-11-25T19:02:10.225Z,9.45
2022-11-25T19:05:39.105Z,9.35
2022-11-25T19:08:43.328Z,8.75
2022-11-25T19:11:51.287Z,8.57
2022-11-25T19:14:57.210Z,8.70
2022-11-25T19:18:03.382Z,8.68
2022-11-25T19:21:07.181Z,8.23
2022-11-25T19:24:19.160Z,8.98
2022-11-25T19:27:24.632Z,8.93
2022-11-25T19:30:31.742Z,9.13
2022-11-25T19:33:38.937Z,9.20
2022-11-25T19:36:42.746Z,10.25
2022-11-25T19:39:51.217Z,10.55
2022-11-25T19:42:55.581Z,11.25
2022-11-25T19:46:00.735Z,13.20
2022-11-25T19:49:05.727Z,13.57
2022-11-25T19:52:19.451Z,15.07
2022-11-25T19:55:28.524Z,16.35
2022-11-25T19:58:32.816Z,16.92
2022-11-25T20:01:43.147Z,16.67
2022-11-25T20:04:49.656Z,17.58
2022-11-25T20:07:53.772Z,15.60
2022-11-25T20:10:58.315Z,14.15
2022-11-25T20:14:03.781Z,15.27
2022-11-25T20:17:12.039Z,12.75
2022-11-25T20:20:27.597Z,11.07
2022-11-25T20:23:44.360Z,9.70
2022-11-25T20:26:49.367Z,10.13
2022-11-25T20:29:53.815Z,9.25
2022-11-25T20:32:57.513Z,9.20
2022-11-25T20:36:07.155Z,9.20
2022-11-25T20:39:16.940Z,8.77
2022-11-25T20:42:22.381Z,8.52
2022-11-25T20:45:26.935Z,8.68
2022-11-25T20:48:31.750Z,8.57
2022-11-25T20:51:36.158Z,7.57
2022-11-25T20:54:40.401Z,7.70
2022-11-25T20:57:44.424Z,7.88
2022-11-25T21:00:54.139Z,7.18
2022-11-25T21:04:01.399Z,7.60
2022-11-25T21:07:06.876Z,7.75
2022-11-25T21:10:24.011Z,7.82
2022-11-25T21:13:29.830Z,6.88
2022-11-25T21:16:33.750Z,7.25
2022-11-25T21:19:37.454Z,7.72
2022-11-25T21:22:44.835Z,7.35
2022-11-25T21:25:49.857Z,7.72
2022-11-25T21:28:54.504Z,7.65
2022-11-25T21:31:58.585Z,7.45
2022-11-25T21:35:03.981Z,7.93
2022-11-25T21:38:22.701Z,8.50
2022-11-25T21:41:27.081Z,7.38
2022-11-25T21:44:41.283Z,8.63
2022-11-25T21:47:45.161Z,7.90
2022-11-25T21:50:49.544Z,7.57
2022-11-25T21:53:54.224Z,7.90
2022-11-25T21:56:58.708Z,8.10
2022-11-25T22:00:02.885Z,8.25
2022-11-25T22:03:15.607Z,8.60
2022-11-25T22:06:24.980Z,8.73
2022-11-25T22:09:28.925Z,8.57
2022-11-25T22:12:39.610Z,8.75
2022-11-25T22:15:45.828Z,9.00
2022-11-25T22:18:50.121Z,8.43
2022-11-25T22:21:54.926Z,9.00
2022-11-25T22:24:58.707Z,8.88
2022-11-25T22:28:02.918Z,9.35
2022-11-25T22:31:10.514Z,8.30
2022-11-25T22:34:20.843Z,8.90
2022-11-25T22:37:25.130Z,9.38
2022-11-25T22:40:29.411Z,9.20
2022-11-25T22:43:36.590Z,8.98
2022-11-25T22:46:40.551Z,8.75
2022-11-25T22:49:47.080Z,8.82
2022-11-25T22:52:51.414Z,10.18
2022-11-25T22:55:57.929Z,9.95
2022-11-25T22:59:01.680Z,8.30
2022-11-25T23:02:05.858Z,8.98
2022-11-25T23:05:25.331Z,8.82
2022-11-25T23:08:32.345Z,9.02
2022-11-25T23:11:39.960Z,9.32
2022-11-25T23:14:44.139Z,8.70
2022-11-25T23:17:50.917Z,9.48
2022-11-25T23:20:55.488Z,9.55
2022-11-25T23:23:59.511Z,9.95
2022-11-25T23:27:03.960Z,9.48
2022-11-25T23:30:14.136Z,10.80
2022-11-25T23:33:33.558Z,10.88
2022-11-25T23:36:48.429Z,10.63
2022-11-25T23:39:53.411Z,9.80
2022-11-25T23:42:57.692Z,10.70
2022-11-25T23:46:01.959Z,10.90
2022-11-25T23:49:15.886Z,10.98
2022-11-25T23:52:24.148Z,11.05
2022-11-25T23:55:34.561Z,10.70
2022-11-25T23:58:38.454Z,11.73
